Time;durP1;ratioP1;P1;durP2;ratioP2;P2;SDS_P1;SDS_P2;PMS_P1;PMS_P2;Temp;Humidity;BMP_temperature;BMP_pressure;BME280_temperature;BME280_humidity;BME280_pressure;Samples;Min_cycle;Max_cycle;Signal;HPM_P1;HPM_P2
2023/10/01 00:00:20;;;;;;;14.70;7.40;;;13.30;81.90;;;;;;5029667;28;20420;-69
2023/10/01 00:02:48;;;;;;;14.70;7.97;;;13.40;82.10;;;;;;5026522;28;20814;-70
2023/10/01 00:05:14;;;;;;;16.93;7.47;;;13.40;82.10;;;;;;5024099;28;20887;-70
2023/10/01 00:07:41;;;;;;;14.73;7.83;;;13.40;82.10;;;;;;5022826;28;20436;-70
2023/10/01 00:10:11;;;;;;;16.23;8.63;;;13.40;81.90;;;;;;5030328;28;20416;-70
2023/10/01 00:12:44;;;;;;;20.77;8.63;;;13.40;81.90;;;;;;5028561;28;20431;-71
2023/10/01 00:15:11;;;;;;;16.07;8.00;;;13.40;82.20;;;;;;5025460;28;20459;-70
2023/10/01 00:17:38;;;;;;;18.70;8.10;;;13.40;82.50;;;;;;5029218;28;20467;-70
2023/10/01 00:20:09;;;;;;;15.60;7.77;;;13.50;81.80;;;;;;5027020;28;20424;-70
2023/10/01 00:22:37;;;;;;;18.00;8.80;;;13.50;81.50;;;;;;5026403;28;20952;-70
2023/10/01 00:25:05;;;;;;;16.57;8.20;;;13.40;81.50;;;;;;5027579;28;20598;-70
2023/10/01 00:27:30;;;;;;;19.47;9.00;;;13.30;81.80;;;;;;5024947;28;20814;-70
2023/10/01 00:29:56;;;;;;;21.70;8.67;;;13.20;82.10;;;;;;5027889;28;20527;-70
2023/10/01 00:32:22;;;;;;;18.93;9.03;;;13.20;82.70;;;;;;5031224;28;20220;-70
2023/10/01 00:34:48;;;;;;;23.57;8.37;;;13.20;82.70;;;;;;5027605;28;20452;-70
2023/10/01 00:37:13;;;;;;;19.57;8.63;;;13.20;82.80;;;;;;5026192;28;20189;-70
2023/10/01 00:39:39;;;;;;;20.93;8.57;;;13.30;82.80;;;;;;5029435;28;20181;-70
2023/10/01 00:42:06;;;;;;;17.87;8.23;;;13.50;82.40;;;;;;5031837;28;20642;-70
2023/10/01 00:44:34;;;;;;;15.93;8.33;;;13.50;81.80;;;;;;5027150;28;20281;-70
2023/10/01 00:47:03;;;;;;;16.30;8.33;;;13.50;81.50;;;;;;5025261;28;20452;-70
2023/10/01 00:49:28;;;;;;;17.87;9.10;;;13.40;81.20;;;;;;5024957;28;20451;-69
2023/10/01 00:51:54;;;;;;;15.80;7.77;;;13.30;81.50;;;;;;5027600;28;20455;-70
2023/10/01 00:54:20;;;;;;;15.20;7.90;;;13.20;81.90;;;;;;5028113;28;20690;-70
2023/10/01 00:56:45;;;;;;;18.40;8.40;;;13.10;82.20;;;;;;5020531;28;20209;-71
2023/10/01 00:59:11;;;;;;;16.30;7.97;;;13.10;82.50;;;;;;5026541;28;20302;-70
2023/10/01 01:01:41;;;;;;;14.47;8.27;;;13.30;82.70;;;;;;5024317;28;20189;-69
2023/10/01 01:04:17;;;;;;;19.37;9.23;;;13.30;82.10;;;;;;5024542;28;20197;-70
2023/10/01 01:06:43;;;;;;;26.50;9.53;;;13.30;81.70;;;;;;5024837;28;20557;-70
2023/10/01 01:09:11;;;;;;;20.50;9.00;;;13.30;82.10;;;;;;5025152;28;20439;-70
2023/10/01 01:11:36;;;;;;;20.30;9.27;;;13.30;82.10;;;;;;5030981;28;20424;-70
2023/10/01 01:14:03;;;;;;;19.70;8.63;;;13.30;82.10;;;;;;5023228;28;20471;-70
2023/10/01 01:16:29;;;;;;;16.97;9.10;;;13.40;82.10;;;;;;5023436;28;20213;-70
2023/10/01 01:18:54;;;;;;;16.93;8.23;;;13.40;81.70;;;;;;5021072;28;20945;-68
2023/10/01 01:21:20;;;;;;;16.73;8.13;;;13.40;81.80;;;;;;5025750;28;20416;-68
2023/10/01 01:23:46;;;;;;;23.30;9.50;;;13.40;81.70;;;;;;5029496;28;20205;-69
2023/10/01 01:26:20;;;;;;;19.40;9.50;;;13.30;81.70;;;;;;5028480;28;20463;-70
2023/10/01 01:28:49;;;;;;;19.33;8.97;;;13.30;81.90;;;;;;5029009;28;20429;-69
2023/10/01 01:31:16;;;;;;;19.30;10.10;;;13.30;82.20;;;;;;5031997;28;20509;-69
2023/10/01 01:33:44;;;;;;;23.13;8.80;;;13.30;82.20;;;;;;5033080;28;20432;-69
2023/10/01 01:36:12;;;;;;;16.63;7.90;;;13.30;82.20;;;;;;5024457;28;20530;-69
2023/10/01 01:39:32;;;;;;;16.10;8.00;;;13.20;82.40;;;;;;5024717;28;20416;-69
2023/10/01 01:41:57;;;;;;;26.90;9.60;;;13.20;82.50;;;;;;4967356;28;20907;-70
2023/10/01 01:44:23;;;;;;;19.27;7.73;;;13.10;82.70;;;;;;4969643;28;20554;-70
2023/10/01 01:46:49;;;;;;;20.60;8.50;;;13.10;82.80;;;;;;4965455;28;20219;-70
2023/10/01 01:49:19;;;;;;;17.20;7.77;;;13.20;83.00;;;;;;4969000;28;20187;-69
2023/10/01 01:51:57;;;;;;;17.93;7.90;;;13.20;82.80;;;;;;4965940;28;20480;-70
2023/10/01 01:54:31;;;;;;;17.13;8.43;;;13.20;82.70;;;;;;4971197;28;20438;-69
2023/10/01 01:56:57;;;;;;;20.27;8.33;;;13.20;82.70;;;;;;4965120;28;21003;-69
2023/10/01 01:59:24;;;;;;;21.27;8.07;;;13.20;82.50;;;;;;4970850;28;20991;-69
2023/10/01 02:01:51;;;;;;;18.23;8.50;;;13.20;82.20;;;;;;4961662;28;20458;-69
2023/10/01 02:04:18;;;;;;;18.17;9.30;;;13.10;82.20;;;;;;4969136;28;20470;-69
2023/10/01 02:06:45;;;;;;;18.70;8.33;;;13.00;82.50;;;;;;4965504;28;20964;-69
2023/10/01 02:09:20;;;;;;;20.70;8.90;;;13.00;83.00;;;;;;4967827;28;20425;-69
2023/10/01 02:11:50;;;;;;;16.80;8.40;;;12.90;83.00;;;;;;4974909;28;20534;-69
2023/10/01 02:14:31;;;;;;;16.67;8.07;;;13.00;83.40;;;;;;5028599;28;20436;-70
2023/10/01 02:17:13;;;;;;;15.67;8.50;;;13.10;83.10;;;;;;5022187;28;20495;-69
2023/10/01 02:19:40;;;;;;;20.10;8.80;;;13.00;82.50;;;;;;5028907;28;20438;-69
2023/10/01 02:22:05;;;;;;;18.63;8.40;;;13.00;82.50;;;;;;5025540;28;20428;-69
2023/10/01 02:27:13;;;;;;;18.33;8.20;;;12.90;83.00;;;;;;5022424;28;20193;-70
2023/10/01 02:32:31;;;;;;;20.73;8.63;;;12.90;83.40;;;;;;4994096;28;21042;-69
2023/10/01 02:34:57;;;;;;;22.63;8.87;;;12.80;83.60;;;;;;4982757;28;20423;-69
2023/10/01 02:37:29;;;;;;;20.83;8.30;;;12.80;83.40;;;;;;4991521;28;20248;-69
2023/10/01 02:39:59;;;;;;;18.43;8.40;;;12.90;83.30;;;;;;4986404;28;20578;-69
2023/10/01 02:42:27;;;;;;;21.13;9.10;;;12.90;83.10;;;;;;5001883;28;20492;-70
2023/10/01 02:44:53;;;;;;;17.63;8.30;;;12.90;82.70;;;;;;4980724;28;20481;-69
2023/10/01 02:47:20;;;;;;;17.53;8.63;;;12.90;82.80;;;;;;4993186;28;20969;-70
2023/10/01 02:49:51;;;;;;;20.10;9.33;;;12.90;82.50;;;;;;4987626;28;20978;-69
2023/10/01 02:52:22;;;;;;;17.43;8.67;;;12.90;82.70;;;;;;4997083;28;20456;-71
2023/10/01 02:54:54;;;;;;;16.50;7.80;;;12.70;83.00;;;;;;4993488;28;20992;-70
2023/10/01 02:57:23;;;;;;;18.63;8.57;;;12.70;83.40;;;;;;4997445;28;20433;-70
2023/10/01 03:02:58;;;;;;;22.93;9.53;;;12.80;83.70;;;;;;4963311;28;20758;-70
2023/10/01 03:05:36;;;;;;;18.13;7.80;;;12.70;83.40;;;;;;4951219;28;20479;-69
2023/10/01 03:08:04;;;;;;;20.63;8.37;;;12.80;83.30;;;;;;4946721;28;21296;-69
2023/10/01 03:10:32;;;;;;;15.53;7.43;;;12.70;83.10;;;;;;4969956;28;21006;-70
2023/10/01 03:13:01;;;;;;;18.10;7.90;;;12.80;83.30;;;;;;4971976;28;20415;-70
2023/10/01 03:15:29;;;;;;;18.40;8.40;;;12.80;82.80;;;;;;4964073;28;20998;-71
2023/10/01 03:17:57;;;;;;;18.37;7.93;;;12.70;82.80;;;;;;4965309;28;20505;-70
2023/10/01 03:23:06;;;;;;;18.83;7.77;;;12.60;83.10;;;;;;4967102;28;20580;-70
2023/10/01 03:25:42;;;;;;;17.13;8.60;;;12.60;83.40;;;;;;4966111;28;21206;-70
2023/10/01 03:28:25;;;;;;;19.47;9.90;;;12.60;83.40;;;;;;4971337;28;20441;-70
2023/10/01 03:30:52;;;;;;;17.80;8.93;;;12.60;83.30;;;;;;4971546;28;20450;-70
2023/10/01 03:33:20;;;;;;;19.67;8.40;;;12.60;83.30;;;;;;4992091;28;20496;-70
2023/10/01 03:35:48;;;;;;;23.13;9.17;;;12.50;83.40;;;;;;5026883;28;20529;-70
2023/10/01 03:38:15;;;;;;;16.23;8.80;;;12.50;83.40;;;;;;5029978;28;20484;-69
2023/10/01 03:41:00;;;;;;;17.60;9.00;;;12.40;83.70;;;;;;5030460;28;20452;-71
2023/10/01 03:43:35;;;;;;;21.17;9.10;;;12.40;83.70;;;;;;5028583;28;20892;-69
2023/10/01 03:46:14;;;;;;;17.40;8.33;;;12.30;83.70;;;;;;5020323;28;20627;-69
2023/10/01 03:54:14;;;;;;;21.47;8.60;;;12.20;84.30;;;;;;5025099;28;20423;-69
2023/10/01 03:56:45;;;;;;;19.67;8.27;;;12.20;84.00;;;;;;5029226;28;20456;-69
2023/10/01 03:59:16;;;;;;;18.57;8.93;;;12.20;84.00;;;;;;5032413;28;20637;-70
2023/10/01 04:02:27;;;;;;;15.30;8.60;;;12.30;84.00;;;;;;5032853;28;21219;-70
2023/10/01 04:04:31;;;;;;;19.77;8.70;;;12.30;83.70;;;;;;5028456;28;20554;-70
2023/10/01 04:07:10;;;;;;;21.80;8.67;;;12.20;83.70;;;;;;5025636;28;20486;-70
2023/10/01 04:09:45;;;;;;;19.30;8.20;;;12.30;84.00;;;;;;5031463;28;20861;-70
2023/10/01 04:12:20;;;;;;;17.57;8.60;;;12.30;83.80;;;;;;5023977;28;20439;-71
2023/10/01 04:14:49;;;;;;;19.90;9.03;;;12.20;84.00;;;;;;5029565;28;21077;-69
2023/10/01 04:17:18;;;;;;;22.80;10.40;;;12.10;84.10;;;;;;5026872;28;20474;-70
2023/10/01 04:19:49;;;;;;;16.53;8.90;;;11.90;84.30;;;;;;5034448;28;20412;-72
2023/10/01 04:22:17;;;;;;;19.90;9.07;;;11.90;84.60;;;;;;5030716;28;20435;-69
2023/10/01 04:25:00;;;;;;;17.70;8.73;;;11.90;84.70;;;;;;5031753;28;20925;-70
2023/10/01 04:27:34;;;;;;;14.33;8.33;;;12.00;84.90;;;;;;5029082;28;20432;-70
2023/10/01 04:30:07;;;;;;;15.23;7.70;;;11.90;84.70;;;;;;5031939;28;20501;-70
2023/10/01 04:32:33;;;;;;;23.43;9.77;;;11.90;84.90;;;;;;5032358;28;20432;-70
2023/10/01 04:34:59;;;;;;;18.20;8.43;;;12.00;84.70;;;;;;5028107;28;20424;-70
2023/10/01 04:37:36;;;;;;;22.30;8.60;;;12.00;84.90;;;;;;5030850;28;20555;-69
2023/10/01 04:40:31;;;;;;;18.53;9.30;;;12.00;84.60;;;;;;5028465;28;20473;-69
2023/10/01 04:42:52;;;;;;;19.07;9.20;;;11.90;84.60;;;;;;5032302;28;20424;-70
2023/10/01 04:45:23;;;;;;;17.50;9.03;;;11.80;84.70;;;;;;5022954;28;20567;-69
2023/10/01 04:47:55;;;;;;;17.27;7.80;;;11.80;84.90;;;;;;5030452;28;20177;-70
2023/10/01 04:50:27;;;;;;;23.57;8.33;;;11.90;85.20;;;;;;5029485;28;20507;-69
2023/10/01 04:52:58;;;;;;;17.43;9.70;;;11.80;84.90;;;;;;5027321;28;20417;-69
2023/10/01 04:55:26;;;;;;;20.03;8.10;;;11.90;84.90;;;;;;5023358;28;20451;-70
2023/10/01 04:57:52;;;;;;;19.17;9.07;;;11.90;84.70;;;;;;5023877;28;20431;-70
2023/10/01 05:00:21;;;;;;;19.17;7.80;;;12.00;84.90;;;;;;5032309;28;20420;-70
2023/10/01 05:02:49;;;;;;;11.70;7.30;;;11.90;84.90;;;;;;5027229;28;20948;-70
2023/10/01 05:05:25;;;;;;;20.57;9.87;;;12.00;85.00;;;;;;5022234;28;20472;-70
2023/10/01 05:07:54;;;;;;;18.73;8.90;;;12.00;85.00;;;;;;5026091;28;20892;-70
2023/10/01 05:10:19;;;;;;;19.03;8.73;;;12.00;84.70;;;;;;5030889;28;20470;-71
2023/10/01 05:12:46;;;;;;;21.23;8.60;;;12.00;84.30;;;;;;5031223;28;20416;-69
2023/10/01 05:15:18;;;;;;;19.00;8.70;;;12.00;84.30;;;;;;5025126;28;20240;-69
2023/10/01 05:17:46;;;;;;;17.87;8.27;;;12.00;84.10;;;;;;5022073;28;20515;-69
2023/10/01 05:20:11;;;;;;;15.63;8.30;;;12.00;84.00;;;;;;5025987;28;21271;-69
2023/10/01 05:22:46;;;;;;;19.80;8.60;;;11.90;84.10;;;;;;5022776;28;20248;-69
2023/10/01 05:25:13;;;;;;;20.23;8.27;;;11.90;84.30;;;;;;5022148;28;20224;-69
2023/10/01 05:27:40;;;;;;;17.10;7.90;;;11.80;84.40;;;;;;5021279;28;20421;-68
2023/10/01 05:30:32;;;;;;;18.90;7.90;;;11.90;84.70;;;;;;5025679;28;20440;-68
2023/10/01 05:32:52;;;;;;;17.87;8.50;;;11.90;84.70;;;;;;5025029;28;20535;-69
2023/10/01 05:35:17;;;;;;;18.03;8.73;;;12.00;84.60;;;;;;5020226;28;20556;-70
2023/10/01 05:37:45;;;;;;;20.70;9.27;;;12.00;84.60;;;;;;5023333;28;20197;-69
2023/10/01 05:40:15;;;;;;;13.93;7.57;;;12.20;84.40;;;;;;5025969;28;20420;-70
2023/10/01 05:42:41;;;;;;;20.90;9.53;;;12.10;84.00;;;;;;5029418;28;20459;-69
2023/10/01 05:45:14;;;;;;;17.00;8.07;;;12.20;84.10;;;;;;5019756;28;20516;-69
2023/10/01 05:47:54;;;;;;;18.00;8.83;;;12.20;84.10;;;;;;5026547;28;20481;-70
2023/10/01 05:50:22;;;;;;;22.33;10.10;;;12.20;83.80;;;;;;5027246;28;20438;-69
2023/10/01 05:52:50;;;;;;;19.40;8.40;;;12.20;83.70;;;;;;5026139;28;20428;-69
2023/10/01 05:55:16;;;;;;;20.47;8.97;;;12.20;83.80;;;;;;5023500;28;20459;-69
2023/10/01 05:57:43;;;;;;;21.23;9.93;;;12.20;83.60;;;;;;5023766;28;20429;-69
2023/10/01 06:00:25;;;;;;;17.50;8.23;;;12.10;83.60;;;;;;5032305;28;20424;-69
2023/10/01 06:03:11;;;;;;;16.23;8.53;;;12.10;83.70;;;;;;5032054;28;20455;-68
2023/10/01 06:08:17;;;;;;;18.33;8.53;;;12.00;84.30;;;;;;5035823;28;20428;-69
2023/10/01 06:10:59;;;;;;;19.70;8.07;;;12.10;84.40;;;;;;5028186;28;20428;-69
2023/10/01 06:13:25;;;;;;;14.27;8.93;;;12.20;84.40;;;;;;5027328;28;20438;-68
2023/10/01 06:15:52;;;;;;;24.90;10.00;;;12.30;84.40;;;;;;5025333;28;21000;-70
2023/10/01 06:18:18;;;;;;;18.63;9.00;;;12.50;84.10;;;;;;5026188;28;20443;-69
2023/10/01 06:20:45;;;;;;;24.67;9.20;;;12.50;84.00;;;;;;5028513;28;20431;-69
2023/10/01 06:23:10;;;;;;;20.93;10.37;;;12.60;83.80;;;;;;5025413;28;20486;-70
2023/10/01 06:25:43;;;;;;;19.70;9.53;;;12.60;83.30;;;;;;5022637;28;20892;-69
2023/10/01 06:28:09;;;;;;;19.40;9.07;;;12.60;83.30;;;;;;5024828;28;20581;-69
2023/10/01 06:30:39;;;;;;;18.00;8.77;;;12.50;83.10;;;;;;5029206;28;20534;-70
2023/10/01 06:33:09;;;;;;;25.10;10.07;;;12.50;83.40;;;;;;5020509;28;20445;-70
2023/10/01 06:35:37;;;;;;;20.37;8.90;;;12.60;83.30;;;;;;5021069;28;21049;-69
2023/10/01 06:38:04;;;;;;;18.90;9.33;;;12.70;83.00;;;;;;5019294;28;20448;-70
2023/10/01 06:40:30;;;;;;;22.10;8.80;;;12.80;83.00;;;;;;5025127;28;20434;-70
2023/10/01 06:43:00;;;;;;;19.67;9.63;;;12.80;82.80;;;;;;5028220;28;20507;-69
2023/10/01 06:45:49;;;;;;;22.00;9.60;;;12.90;82.80;;;;;;5021331;28;20625;-69
2023/10/01 06:48:15;;;;;;;19.60;9.97;;;12.90;82.50;;;;;;5027948;28;20777;-70
2023/10/01 06:50:44;;;;;;;16.03;8.83;;;13.00;82.40;;;;;;5035375;28;20420;-70
2023/10/01 06:53:10;;;;;;;21.83;9.23;;;13.00;82.20;;;;;;5036685;28;20438;-70
2023/10/01 06:55:36;;;;;;;14.50;7.53;;;13.10;82.10;;;;;;5028199;28;20460;-69
2023/10/01 06:58:06;;;;;;;21.50;9.53;;;13.10;81.90;;;;;;5030421;28;20432;-69
2023/10/01 07:00:35;;;;;;;23.73;10.10;;;13.20;81.80;;;;;;5029081;28;20428;-68
2023/10/01 07:03:18;;;;;;;21.03;10.13;;;13.20;81.70;;;;;;5028322;28;20428;-69
2023/10/01 07:05:51;;;;;;;20.23;9.17;;;13.10;81.80;;;;;;5020879;28;20579;-71
2023/10/01 07:08:18;;;;;;;22.30;9.23;;;13.20;82.10;;;;;;5027302;28;20423;-71
2023/10/01 07:10:50;;;;;;;19.37;9.60;;;13.20;81.90;;;;;;5026521;28;20928;-71
2023/10/01 07:13:16;;;;;;;17.10;8.87;;;13.30;81.70;;;;;;5026972;28;20441;-70
2023/10/01 07:15:48;;;;;;;18.50;9.50;;;13.40;81.40;;;;;;5026119;28;20475;-70
2023/10/01 07:18:15;;;;;;;16.53;8.80;;;13.40;81.40;;;;;;5027311;28;20542;-72
2023/10/01 07:20:49;;;;;;;19.37;10.10;;;13.40;81.40;;;;;;5029848;28;20486;-70
2023/10/01 07:23:17;;;;;;;18.33;9.10;;;13.50;81.50;;;;;;5026634;28;20519;-70
2023/10/01 07:25:47;;;;;;;20.00;11.30;;;13.50;81.70;;;;;;5022242;28;20460;-72
2023/10/01 07:28:12;;;;;;;20.33;9.40;;;13.60;81.70;;;;;;5025539;28;20424;-70
2023/10/01 07:30:45;;;;;;;22.43;9.50;;;13.70;81.50;;;;;;5022187;28;20546;-71
2023/10/01 07:33:14;;;;;;;24.03;11.47;;;13.70;81.40;;;;;;5023232;28;20192;-71
2023/10/01 07:35:44;;;;;;;25.50;10.90;;;13.80;81.10;;;;;;5023249;28;20456;-70
2023/10/01 07:38:13;;;;;;;20.67;10.03;;;13.80;81.10;;;;;;5025319;28;20420;-70
2023/10/01 07:40:57;;;;;;;19.90;10.63;;;13.80;80.80;;;;;;5032766;28;20440;-68
2023/10/01 07:43:26;;;;;;;22.40;12.03;;;13.90;80.80;;;;;;5028747;28;20432;-75
2023/10/01 07:45:57;;;;;;;18.17;9.70;;;13.90;80.60;;;;;;5029252;28;20461;-70
2023/10/01 07:48:29;;;;;;;20.30;10.43;;;14.00;80.60;;;;;;5032224;28;20866;-71
2023/10/01 07:50:55;;;;;;;25.57;11.43;;;14.00;80.60;;;;;;5032374;28;20430;-71
2023/10/01 07:53:23;;;;;;;18.03;9.90;;;14.10;80.60;;;;;;5031232;28;20431;-69
2023/10/01 07:55:48;;;;;;;21.33;10.47;;;14.20;80.60;;;;;;5022415;28;20458;-70
2023/10/01 07:58:25;;;;;;;19.23;8.80;;;14.30;80.00;;;;;;5029843;28;20942;-69
2023/10/01 08:03:48;;;;;;;18.57;10.10;;;14.40;79.70;;;;;;4994536;28;20818;-69
2023/10/01 08:06:16;;;;;;;22.23;10.47;;;14.50;79.60;;;;;;5025333;28;20464;-69
2023/10/01 08:08:47;;;;;;;15.40;9.30;;;14.50;79.50;;;;;;5031276;28;20595;-71
2023/10/01 08:13:58;;;;;;;20.00;9.73;;;14.60;79.30;;;;;;5032424;28;20427;-70
2023/10/01 08:16:24;;;;;;;16.53;9.53;;;14.70;78.90;;;;;;5025078;28;20968;-70
2023/10/01 08:18:57;;;;;;;17.33;9.47;;;14.80;78.90;;;;;;5031268;28;20740;-70
2023/10/01 08:21:36;;;;;;;21.07;9.47;;;14.90;78.40;;;;;;5033272;28;20434;-70
2023/10/01 08:24:09;;;;;;;21.10;9.90;;;15.00;78.30;;;;;;5030957;28;21135;-70
2023/10/01 08:26:49;;;;;;;18.97;9.50;;;15.20;77.70;;;;;;5028132;28;20462;-69
2023/10/01 08:29:15;;;;;;;21.10;9.30;;;15.30;77.00;;;;;;5033711;28;20438;-69
2023/10/01 08:34:28;;;;;;;20.40;10.57;;;15.30;77.10;;;;;;5032496;28;20953;-69
2023/10/01 08:36:56;;;;;;;23.00;9.70;;;15.30;77.00;;;;;;5029089;28;20500;-69
2023/10/01 08:39:47;;;;;;;23.63;9.50;;;15.40;76.80;;;;;;5028296;28;20515;-69
2023/10/01 08:42:13;;;;;;;20.50;9.77;;;15.50;76.80;;;;;;5030230;28;21066;-71
2023/10/01 08:44:45;;;;;;;20.57;9.43;;;15.70;76.40;;;;;;5030280;28;20624;-73
2023/10/01 08:47:22;;;;;;;19.27;9.33;;;15.80;76.10;;;;;;5026965;28;20448;-70
2023/10/01 08:49:52;;;;;;;21.40;9.20;;;15.90;76.10;;;;;;5030046;28;20441;-71
2023/10/01 08:52:30;;;;;;;18.97;8.83;;;16.00;75.90;;;;;;5029750;28;20411;-70
2023/10/01 08:54:57;;;;;;;18.00;9.03;;;16.10;75.20;;;;;;5026857;28;20427;-70
2023/10/01 08:57:38;;;;;;;18.80;9.50;;;16.30;74.90;;;;;;5027269;28;20425;-72
2023/10/01 09:00:15;;;;;;;17.47;9.43;;;16.40;74.80;;;;;;5022350;28;20417;-71
2023/10/01 09:02:41;;;;;;;16.57;8.37;;;16.50;74.30;;;;;;5029534;28;20842;-71
2023/10/01 09:05:09;;;;;;;18.23;9.00;;;16.60;74.00;;;;;;5025580;28;21002;-71
2023/10/01 09:07:42;;;;;;;20.37;9.47;;;16.60;73.90;;;;;;5034551;28;20219;-71
2023/10/01 09:10:09;;;;;;;15.70;8.60;;;16.70;73.50;;;;;;5034351;28;20467;-70
2023/10/01 09:12:36;;;;;;;20.13;9.60;;;16.90;73.20;;;;;;5024657;28;20432;-70
2023/10/01 09:15:04;;;;;;;23.03;9.30;;;17.00;72.60;;;;;;5028315;28;20455;-69
2023/10/01 09:17:56;;;;;;;19.40;8.90;;;17.20;72.30;;;;;;5032838;28;20436;-70
2023/10/01 09:20:38;;;;;;;20.07;9.10;;;17.30;72.00;;;;;;5032751;28;20966;-70
2023/10/01 09:23:05;;;;;;;17.67;8.90;;;17.40;71.60;;;;;;5030333;28;20431;-67
2023/10/01 09:25:34;;;;;;;15.40;8.53;;;17.60;71.40;;;;;;5019757;28;20580;-69
2023/10/01 09:28:19;;;;;;;15.90;8.20;;;17.80;70.80;;;;;;5024297;28;20426;-69
2023/10/01 09:31:04;;;;;;;16.17;8.60;;;17.90;70.40;;;;;;5029215;28;20453;-70
2023/10/01 09:33:32;;;;;;;16.53;8.27;;;18.00;70.20;;;;;;5030976;28;20443;-69
2023/10/01 09:36:00;;;;;;;21.80;9.53;;;18.10;70.10;;;;;;5021727;28;20463;-69
2023/10/01 09:38:28;;;;;;;17.03;7.90;;;18.20;69.80;;;;;;5025237;28;20425;-70
2023/10/01 09:40:56;;;;;;;14.50;8.50;;;18.40;69.40;;;;;;5027183;28;21016;-70
2023/10/01 09:43:27;;;;;;;15.80;8.20;;;18.50;68.90;;;;;;5029010;28;20526;-70
2023/10/01 09:45:54;;;;;;;19.67;8.73;;;18.60;68.80;;;;;;5025161;28;20469;-68
2023/10/01 09:48:33;;;;;;;16.40;7.70;;;18.60;68.50;;;;;;5031098;28;20430;-69
2023/10/01 09:51:09;;;;;;;13.43;7.80;;;18.60;68.50;;;;;;5030477;28;20430;-72
2023/10/01 09:54:01;;;;;;;16.50;8.07;;;18.80;68.50;;;;;;5025778;28;20485;-68
2023/10/01 09:56:38;;;;;;;16.97;8.87;;;18.90;68.30;;;;;;5017948;28;20458;-67
2023/10/01 09:59:07;;;;;;;18.10;9.00;;;19.00;67.90;;;;;;5030111;28;20469;-68
2023/10/01 10:01:38;;;;;;;17.53;8.67;;;19.20;67.70;;;;;;5029561;28;20438;-69
2023/10/01 10:04:06;;;;;;;15.27;8.10;;;19.30;67.20;;;;;;5025878;28;20468;-68
2023/10/01 10:06:32;;;;;;;16.27;8.33;;;19.30;66.70;;;;;;5021583;28;20460;-70
2023/10/01 10:09:03;;;;;;;20.93;9.20;;;19.40;66.90;;;;;;5029677;28;20779;-68
2023/10/01 10:11:46;;;;;;;16.90;7.50;;;19.30;66.90;;;;;;5030415;28;20420;-70
2023/10/01 10:14:34;;;;;;;15.07;7.73;;;19.50;66.70;;;;;;5025375;28;20561;-69
2023/10/01 10:17:18;;;;;;;15.83;7.90;;;19.60;66.10;;;;;;5014591;28;20472;-69
2023/10/01 10:20:16;;;;;;;14.73;7.40;;;19.70;66.10;;;;;;5029846;28;20943;-68
2023/10/01 10:23:06;;;;;;;18.27;8.80;;;19.80;66.10;;;;;;5027803;28;20438;-69
2023/10/01 10:25:32;;;;;;;18.20;7.57;;;19.90;65.40;;;;;;5022637;28;20627;-69
2023/10/01 10:27:57;;;;;;;15.80;8.00;;;20.10;65.00;;;;;;5026327;28;20413;-69
2023/10/01 10:30:27;;;;;;;18.47;7.60;;;20.20;64.80;;;;;;5028679;28;20230;-70
2023/10/01 10:33:29;;;;;;;13.03;7.20;;;20.60;64.80;;;;;;5022517;28;20621;-69
2023/10/01 10:36:50;;;;;;;13.67;7.17;;;21.30;62.90;;;;;;5020669;28;20471;-69
2023/10/01 10:39:45;;;;;;;18.30;7.43;;;21.80;61.90;;;;;;5024147;28;20432;-69
2023/10/01 10:42:27;;;;;;;12.93;7.23;;;22.30;61.90;;;;;;5020239;28;20497;-70
2023/10/01 10:45:20;;;;;;;15.87;8.30;;;22.60;61.60;;;;;;5025398;28;20530;-70
2023/10/01 10:47:59;;;;;;;15.20;7.70;;;22.80;61.50;;;;;;5030336;28;20496;-69
2023/10/01 10:50:50;;;;;;;14.77;7.93;;;22.70;61.20;;;;;;5027066;28;20434;-70
2023/10/01 10:53:21;;;;;;;15.50;7.50;;;22.90;61.30;;;;;;5030465;28;20518;-70
2023/10/01 10:56:05;;;;;;;15.53;7.70;;;23.20;60.60;;;;;;5021187;28;22245;-70
2023/10/01 10:58:38;;;;;;;16.57;8.20;;;23.50;60.00;;;;;;5031195;28;20428;-67
2023/10/01 11:01:18;;;;;;;16.20;8.20;;;23.70;59.50;;;;;;5029942;28;20508;-69
2023/10/01 11:03:57;;;;;;;16.53;7.80;;;23.80;58.70;;;;;;5026490;28;20471;-69
2023/10/01 11:06:29;;;;;;;15.97;6.90;;;23.60;58.50;;;;;;5024956;28;20468;-68
2023/10/01 11:08:57;;;;;;;17.00;7.70;;;23.60;58.90;;;;;;5029479;28;20442;-70
2023/10/01 11:11:24;;;;;;;16.57;7.67;;;23.60;59.10;;;;;;5028371;28;20422;-71
2023/10/01 11:14:00;;;;;;;16.37;7.00;;;23.80;58.80;;;;;;5027219;28;20784;-71
2023/10/01 11:16:38;;;;;;;13.70;6.67;;;24.00;58.40;;;;;;5028764;28;20469;-69
2023/10/01 11:19:15;;;;;;;16.03;7.30;;;24.10;58.00;;;;;;5026048;28;20515;-70
2023/10/01 11:21:56;;;;;;;15.23;7.00;;;24.00;58.00;;;;;;5029090;28;20433;-70
2023/10/01 11:24:24;;;;;;;16.40;7.87;;;24.20;58.00;;;;;;5027216;28;21194;-70
2023/10/01 11:27:17;;;;;;;12.50;6.83;;;24.40;57.30;;;;;;5025764;28;20469;-71
2023/10/01 11:30:12;;;;;;;16.40;7.30;;;24.60;57.00;;;;;;5036455;28;20813;-69
2023/10/01 11:35:41;;;;;;;15.10;7.40;;;24.80;56.90;;;;;;5029503;28;20571;-70
2023/10/01 11:38:14;;;;;;;16.00;8.30;;;24.80;56.50;;;;;;5022991;28;20434;-70
2023/10/01 11:43:38;;;;;;;16.53;8.20;;;24.40;57.30;;;;;;5030939;28;20421;-69
2023/10/01 11:46:23;;;;;;;15.50;7.93;;;24.40;57.70;;;;;;5029888;28;20654;-69
2023/10/01 11:48:57;;;;;;;17.87;8.53;;;24.60;57.30;;;;;;5032830;28;20463;-70
2023/10/01 11:51:38;;;;;;;15.47;9.03;;;24.90;56.80;;;;;;5028707;28;20792;-70
2023/10/01 11:54:11;;;;;;;14.27;7.27;;;25.10;56.00;;;;;;5030919;28;20941;-70
2023/10/01 11:56:42;;;;;;;13.97;7.47;;;25.10;56.00;;;;;;5026123;28;20477;-70
2023/10/01 11:59:17;;;;;;;16.83;7.07;;;24.70;56.60;;;;;;5030316;28;20802;-69
2023/10/01 12:01:49;;;;;;;13.80;7.20;;;24.90;56.50;;;;;;5029070;28;20650;-69
2023/10/01 12:04:24;;;;;;;12.33;6.67;;;24.90;56.20;;;;;;5032302;28;20847;-70
2023/10/01 12:06:53;;;;;;;24.33;8.67;;;24.80;56.50;;;;;;5022542;28;20491;-69
2023/10/01 12:09:20;;;;;;;16.07;7.60;;;25.10;56.00;;;;;;5026090;28;20422;-70
2023/10/01 12:12:04;;;;;;;17.80;7.70;;;25.20;55.60;;;;;;5022155;28;20414;-69
2023/10/01 12:14:52;;;;;;;16.13;7.70;;;25.30;55.20;;;;;;5022324;28;20487;-68
2023/10/01 12:17:23;;;;;;;17.63;7.40;;;25.40;54.90;;;;;;5025112;28;20450;-69
2023/10/01 12:19:53;;;;;;;17.67;7.77;;;25.50;54.90;;;;;;5031820;28;20412;-69
2023/10/01 12:22:23;;;;;;;13.27;7.07;;;25.50;54.60;;;;;;5033620;28;20795;-71
2023/10/01 12:24:56;;;;;;;16.90;7.70;;;25.70;54.50;;;;;;5032400;28;20978;-70
2023/10/01 12:27:40;;;;;;;18.87;8.97;;;26.00;54.00;;;;;;5032458;28;20439;-69
2023/10/01 12:30:11;;;;;;;16.40;7.27;;;26.30;53.30;;;;;;5026822;28;20466;-69
2023/10/01 12:32:47;;;;;;;19.77;8.07;;;26.20;52.60;;;;;;5029761;28;20456;-69
2023/10/01 12:35:27;;;;;;;23.00;7.73;;;26.20;53.00;;;;;;5026171;28;21550;-70
2023/10/01 12:38:05;;;;;;;16.30;7.60;;;26.40;52.60;;;;;;5031961;28;20423;-72
2023/10/01 12:40:36;;;;;;;15.77;6.97;;;26.50;52.20;;;;;;5026967;28;20423;-69
2023/10/01 12:43:03;;;;;;;19.00;7.37;;;26.40;52.10;;;;;;5029117;28;20423;-70
2023/10/01 12:45:30;;;;;;;19.47;8.03;;;26.30;52.40;;;;;;5025113;28;20873;-71
2023/10/01 12:48:07;;;;;;;17.80;7.40;;;26.20;52.50;;;;;;5024138;28;20505;-69
2023/10/01 12:50:34;;;;;;;16.03;7.07;;;26.00;53.30;;;;;;5028517;28;21270;-71
2023/10/01 12:55:51;;;;;;;16.63;7.90;;;26.20;53.30;;;;;;5024040;28;20601;-71
2023/10/01 12:58:19;;;;;;;14.47;7.43;;;26.60;52.60;;;;;;5031703;28;20424;-70
2023/10/01 13:00:45;;;;;;;15.70;7.33;;;27.00;50.90;;;;;;5031402;28;20445;-72
2023/10/01 13:03:16;;;;;;;15.37;6.83;;;27.20;50.10;;;;;;5031924;28;20434;-70
2023/10/01 13:05:47;;;;;;;16.57;7.63;;;26.60;50.70;;;;;;5022722;28;20500;-69
2023/10/01 13:08:27;;;;;;;12.80;6.83;;;26.00;52.10;;;;;;5029014;28;20427;-69
2023/10/01 13:10:56;;;;;;;16.10;7.53;;;26.20;52.10;;;;;;5033853;28;20402;-70
2023/10/01 13:13:29;;;;;;;13.63;7.20;;;26.60;51.80;;;;;;5029113;28;20420;-70
2023/10/01 13:15:56;;;;;;;15.40;8.10;;;27.10;50.60;;;;;;5028094;28;20463;-70
2023/10/01 13:18:28;;;;;;;18.13;7.70;;;27.60;50.10;;;;;;5030227;28;20423;-70
2023/10/01 13:23:28;;;;;;;16.03;7.77;;;27.30;47.70;;;;;;5026725;28;20861;-72
2023/10/01 13:26:06;;;;;;;16.60;7.57;;;27.20;49.00;;;;;;5019093;28;21010;-70
2023/10/01 13:28:56;;;;;;;16.77;7.70;;;27.50;48.50;;;;;;5030838;28;20494;-71
2023/10/01 13:39:44;;;;;;;13.27;7.10;;;28.90;44.60;;;;;;5031846;28;20486;-70
2023/10/01 14:09:49;;;;;;;14.63;7.93;;;28.80;43.10;;;;;;5028252;28;20545;-70
2023/10/01 14:12:41;;;;;;;21.33;9.20;;;28.80;42.20;;;;;;5029845;28;20419;-71
2023/10/01 14:15:01;;;;;;;15.40;7.73;;;28.40;42.80;;;;;;5022927;28;20444;-69